Main page


Airports :

Herat, Afghanistan

Herat International Airport

latitude: 34-13N, longitude: 062-13E, elevation: 964 m

Current weather observation

The report was made 22 minutes ago, at 05:55 UTC
Wind 2 kt from the East/Southeast
Temperature 12°C
Humidity 67%
Pressure 1021 hPa
Visibility: 9000 m
Scattered clouds at a height of 2000 ft

METAR: OAHR 200555Z 12002KT 9000 SCT020 12/06 Q1021 RMK A3017 BLU

Time: 10:47 (06:17 UTC)


The report was made 1 hour and 17 minutes ago, at 05:00 UTC
Forecast valid from 20 at 06 UTC to 21 at 06 UTC
Wind 5 kt from the West
Visibility: 8000 m
Few clouds at a height of 2000 ft
from 20 at 08 UTC to 20 at 10 UTC
Wind 10 kt from the West with gusts up to 20 kt
Visibility 10 km or more
Few clouds at a height of 6000 ft
from 20 at 14 UTC to 20 at 16 UTC
Wind 6 kt from the West/Southwest
Visibility 10 km or more
no clouds below 1500 m and no cumulonimbus

TAF: OAHR 200500Z 2006/2106 28005KT 8000 FEW020 BECMG 2008/2010 28010G20KT 9999 NSW FEW060 BECMG 2014/2016 25006KT CAVOK

Weather observations and forecasts of more than 4000 airports (METAR and TAF reports).

The available stations are represented by yellow and red dots on the map.

Hover mouse over dot to see the name of the station.

Then click to see weather observations and forecasts.

To change the map : click on the green buttons with a black cross to zoom in, on the green button with a dash to zoom out, or on the green arrows for adjacent maps.